Kapalai — SGNT — position and weather

sailwx.info

Track history (hours):
 
Tides and Currents Weather Stations Pressure Air Temp Water Temp Dewpoint Dewpoint Depression Visibility Wind Speed Wind Dir Waves Ship Positions

Kapalai

Last reported at 2018-Apr-12 19:32 UTC. Time now 2018-Apr-20 18:36 UTC.
Position N 17°01' W 061°47'.

Length 14 m.

Type: Sailing vessel. MMSI: 266118000.

Date/timePositionNaut miles runAvg speedWind from/ knotsBaromVisibWave heightAir tempDewpointWater temp
2018-Apr-12 19:32N 17°01' W 061°47'0 0.1
2018-Apr-12 19:29N 17°01' W 061°47'1 1.3
2018-Apr-12 18:59N 17°01' W 061°47'0 0.0
2018-Apr-11 22:27N 17°01' W 061°47'0 0.0
2018-Apr-11 22:00N 17°01' W 061°47'0 0.1
2018-Apr-11 21:30N 17°01' W 061°47'2 3.1
2018-Apr-11 21:00N 16°60' W 061°48'2 3.1
2018-Apr-11 20:30N 16°60' W 061°50'1 3.0
2018-Apr-11 20:00N 17°00' W 061°51'2 3.4
2018-Apr-11 19:30N 16°60' W 061°53'1 2.4
2018-Apr-11 19:00N 17°00' W 061°54'3 5.4
2018-Apr-11 18:29N 17°03' W 061°55'2 3.1
2018-Apr-11 17:53N 17°05' W 061°54'0 0.0
2018-Apr-11 17:29N 17°05' W 061°54'0 0.0
2018-Apr-10 15:48N 17°05' W 061°54'1 3.0
2018-Apr-10 15:30N 17°05' W 061°55'3 6.3
2018-Apr-10 14:59N 17°07' W 061°57'3 6.7
2018-Apr-10 14:29N 17°09' W 061°60'3 6.6
2018-Apr-10 14:00N 17°12' W 062°02'3 6.4
2018-Apr-10 13:30N 17°14' W 062°04'3 6.6
2018-Apr-10 13:00N 17°17' W 062°06'3 6.4
2018-Apr-10 12:30N 17°19' W 062°08'3 6.2
2018-Apr-10 12:00N 17°22' W 062°10'3 6.6
2018-Apr-10 11:30N 17°19' W 062°12'3 5.5
2018-Apr-10 10:59N 17°16' W 062°13'2 4.2
2018-Apr-10 10:30N 17°18' W 062°14'3 4.9
2018-Apr-10 09:59N 17°20' W 062°16'2 4.4
2018-Apr-10 09:29N 17°22' W 062°17'2 4.6
2018-Apr-10 09:00N 17°23' W 062°19'7 4.5
2018-Apr-10 07:22N 17°29' W 062°24'42 4.8
2018-Apr-09 22:30N 17°55' W 062°59'3 5.2
2018-Apr-09 22:00N 17°57' W 063°01'3 5.2
2018-Apr-09 21:30N 17°58' W 063°03'2 4.2
2018-Apr-09 21:00N 17°60' W 063°04'2 4.5
2018-Apr-09 20:30N 18°02' W 063°06'0 0.6
2018-Apr-09 19:47N 18°02' W 063°06'0 0.0
2018-Apr-09 19:17N 18°02' W 063°06'0 0.0
2018-Apr-09 18:59N 18°02' W 063°06'  
2018-Apr-04 23:59N 18°02' W 063°06'0 0.0
2018-Apr-04 23:29N 18°02' W 063°06'0 0.0
2018-Apr-04 22:59N 18°02' W 063°06'0 0.0
2018-Apr-04 22:17N 18°02' W 063°06'0 0.0
2018-Apr-04 21:59N 18°02' W 063°06'0 0.0
2018-Apr-04 21:29N 18°02' W 063°06'0 0.0
2018-Apr-04 20:58N 18°02' W 063°06'0 0.0
2018-Apr-04 20:19N 18°02' W 063°06'0 0.0
2018-Apr-04 19:50N 18°02' W 063°06'0 0.0
2018-Apr-04 19:20N 18°02' W 063°06'0 0.0
2018-Apr-04 18:37N 18°02' W 063°06'0 0.0
2018-Apr-04 18:23N 18°02' W 063°06'0 0.0
2018-Apr-04 17:38N 18°02' W 063°06'0 0.1
2018-Apr-04 17:22N 18°02' W 063°06'0 0.0
2018-Apr-04 17:00N 18°02' W 063°06'1 2.0
2018-Apr-04 16:28N 18°01' W 063°06'2 0.1
2018-Apr-03 20:45N 18°01' W 063°03'1 4.0
2018-Apr-03 20:24N 17°60' W 063°02'2 5.7
2018-Apr-03 20:00N 17°58' W 063°00'  
Track history (hours):
 
Tides and Currents Weather Stations Pressure Air Temp Water Temp Dewpoint Dewpoint Depression Visibility Wind Speed Wind Dir Waves Ship Positions

Kapalai

Last reported at 2018-Apr-12 19:32 UTC. Time now 2018-Apr-20 18:36 UTC.
Position N 17°01' W 061°47'.

Length 14 m.

Type: Sailing vessel. MMSI: 266118000.

Date/timePositionNaut miles runAvg speedWind from/ knotsBaromVisibWave heightAir tempDewpointWater temp
2018-Apr-12 19:32N 17°01' W 061°47'0 0.1
2018-Apr-12 19:29N 17°01' W 061°47'1 1.3
2018-Apr-12 18:59N 17°01' W 061°47'0 0.0
2018-Apr-11 22:27N 17°01' W 061°47'0 0.0
2018-Apr-11 22:00N 17°01' W 061°47'0 0.1
2018-Apr-11 21:30N 17°01' W 061°47'2 3.1
2018-Apr-11 21:00N 16°60' W 061°48'2 3.1
2018-Apr-11 20:30N 16°60' W 061°50'1 3.0
2018-Apr-11 20:00N 17°00' W 061°51'2 3.4
2018-Apr-11 19:30N 16°60' W 061°53'1 2.4
2018-Apr-11 19:00N 17°00' W 061°54'3 5.4
2018-Apr-11 18:29N 17°03' W 061°55'2 3.1
2018-Apr-11 17:53N 17°05' W 061°54'0 0.0
2018-Apr-11 17:29N 17°05' W 061°54'0 0.0
2018-Apr-10 15:48N 17°05' W 061°54'1 3.0
2018-Apr-10 15:30N 17°05' W 061°55'3 6.3
2018-Apr-10 14:59N 17°07' W 061°57'3 6.7
2018-Apr-10 14:29N 17°09' W 061°60'3 6.6
2018-Apr-10 14:00N 17°12' W 062°02'3 6.4
2018-Apr-10 13:30N 17°14' W 062°04'3 6.6
2018-Apr-10 13:00N 17°17' W 062°06'3 6.4
2018-Apr-10 12:30N 17°19' W 062°08'3 6.2
2018-Apr-10 12:00N 17°22' W 062°10'3 6.6
2018-Apr-10 11:30N 17°19' W 062°12'3 5.5
2018-Apr-10 10:59N 17°16' W 062°13'2 4.2
2018-Apr-10 10:30N 17°18' W 062°14'3 4.9
2018-Apr-10 09:59N 17°20' W 062°16'2 4.4
2018-Apr-10 09:29N 17°22' W 062°17'2 4.6
2018-Apr-10 09:00N 17°23' W 062°19'7 4.5
2018-Apr-10 07:22N 17°29' W 062°24'42 4.8
2018-Apr-09 22:30N 17°55' W 062°59'3 5.2
2018-Apr-09 22:00N 17°57' W 063°01'3 5.2
2018-Apr-09 21:30N 17°58' W 063°03'2 4.2
2018-Apr-09 21:00N 17°60' W 063°04'2 4.5
2018-Apr-09 20:30N 18°02' W 063°06'0 0.6
2018-Apr-09 19:47N 18°02' W 063°06'0 0.0
2018-Apr-09 19:17N 18°02' W 063°06'0 0.0
2018-Apr-09 18:59N 18°02' W 063°06'  
2018-Apr-04 23:59N 18°02' W 063°06'0 0.0
2018-Apr-04 23:29N 18°02' W 063°06'0 0.0
2018-Apr-04 22:59N 18°02' W 063°06'0 0.0
2018-Apr-04 22:17N 18°02' W 063°06'0 0.0
2018-Apr-04 21:59N 18°02' W 063°06'0 0.0
2018-Apr-04 21:29N 18°02' W 063°06'0 0.0
2018-Apr-04 20:58N 18°02' W 063°06'0 0.0
2018-Apr-04 20:19N 18°02' W 063°06'0 0.0
2018-Apr-04 19:50N 18°02' W 063°06'0 0.0
2018-Apr-04 19:20N 18°02' W 063°06'0 0.0
2018-Apr-04 18:37N 18°02' W 063°06'0 0.0
2018-Apr-04 18:23N 18°02' W 063°06'0 0.0
2018-Apr-04 17:38N 18°02' W 063°06'0 0.1
2018-Apr-04 17:22N 18°02' W 063°06'0 0.0
2018-Apr-04 17:00N 18°02' W 063°06'1 2.0
2018-Apr-04 16:28N 18°01' W 063°06'2 0.1
2018-Apr-03 20:45N 18°01' W 063°03'1 4.0
2018-Apr-03 20:24N 17°60' W 063°02'2 5.7
2018-Apr-03 20:00N 17°58' W 063°00'  

Dump ship's entire track history